sensor_id;sensor_type;location;lat;lon;timestamp;pressure;altitude;pressure_sealevel;temperature;humidity
55932;BME280;41837;55.700;37.984;2023-02-26T00:01:57;97899.81;;;-1.05;100.00
55932;BME280;41837;55.700;37.984;2023-02-26T00:04:25;97899.91;;;-1.09;100.00
55932;BME280;41837;55.700;37.984;2023-02-26T00:06:52;97891.44;;;-1.11;100.00
55932;BME280;41837;55.700;37.984;2023-02-26T00:09:18;97869.97;;;-1.09;100.00
55932;BME280;41837;55.700;37.984;2023-02-26T00:11:45;97871.59;;;-1.05;100.00
55932;BME280;41837;55.700;37.984;2023-02-26T00:14:13;97870.13;;;-1.14;100.00
55932;BME280;41837;55.700;37.984;2023-02-26T00:16:40;97860.69;;;-1.13;100.00
55932;BME280;41837;55.700;37.984;2023-02-26T00:19:09;97857.97;;;-1.07;100.00
55932;BME280;41837;55.700;37.984;2023-02-26T00:21:39;97854.59;;;-1.09;100.00
55932;BME280;41837;55.700;37.984;2023-02-26T00:24:05;97850.53;;;-1.16;100.00
55932;BME280;41837;55.700;37.984;2023-02-26T00:26:33;97822.56;;;-1.25;100.00
55932;BME280;41837;55.700;37.984;2023-02-26T00:29:00;97822.38;;;-1.19;100.00
55932;BME280;41837;55.700;37.984;2023-02-26T00:31:26;97830.84;;;-1.16;100.00
55932;BME280;41837;55.700;37.984;2023-02-26T00:33:54;97835.84;;;-1.11;100.00
55932;BME280;41837;55.700;37.984;2023-02-26T00:41:55;97809.50;;;-1.16;100.00
55932;BME280;41837;55.700;37.984;2023-02-26T00:44:21;97799.41;;;-1.22;100.00
55932;BME280;41837;55.700;37.984;2023-02-26T00:52:31;97770.84;;;-1.41;100.00
55932;BME280;41837;55.700;37.984;2023-02-26T00:55:00;97766.81;;;-1.50;100.00
55932;BME280;41837;55.700;37.984;2023-02-26T00:57:26;97757.44;;;-1.51;100.00
55932;BME280;41837;55.700;37.984;2023-02-26T00:59:52;97741.44;;;-1.59;100.00
55932;BME280;41837;55.700;37.984;2023-02-26T01:02:19;97744.50;;;-1.46;100.00
55932;BME280;41837;55.700;37.984;2023-02-26T01:04:45;97754.75;;;-1.46;100.00
55932;BME280;41837;55.700;37.984;2023-02-26T01:07:13;97728.53;;;-1.56;100.00
55932;BME280;41837;55.700;37.984;2023-02-26T01:09:40;97734.47;;;-1.54;100.00
55932;BME280;41837;55.700;37.984;2023-02-26T01:12:09;97732.03;;;-1.59;100.00
55932;BME280;41837;55.700;37.984;2023-02-26T01:14:36;97728.59;;;-1.58;100.00
55932;BME280;41837;55.700;37.984;2023-02-26T01:17:27;97727.75;;;-1.58;100.00
55932;BME280;41837;55.700;37.984;2023-02-26T01:25:28;97721.66;;;-1.54;100.00
55932;BME280;41837;55.700;37.984;2023-02-26T01:27:56;97730.91;;;-1.48;100.00
55932;BME280;41837;55.700;37.984;2023-02-26T01:30:23;97716.31;;;-1.46;100.00
55932;BME280;41837;55.700;37.984;2023-02-26T01:33:17;97696.44;;;-1.68;100.00
55932;BME280;41837;55.700;37.984;2023-02-26T01:36:08;97712.81;;;-1.42;100.00
55932;BME280;41837;55.700;37.984;2023-02-26T01:38:48;97700.22;;;-1.52;100.00
55932;BME280;41837;55.700;37.984;2023-02-26T01:49:21;97694.72;;;-1.38;100.00
55932;BME280;41837;55.700;37.984;2023-02-26T01:52:01;97702.75;;;-1.50;100.00
55932;BME280;41837;55.700;37.984;2023-02-26T01:57:16;97671.13;;;-1.49;100.00
55932;BME280;41837;55.700;37.984;2023-02-26T01:59:45;97673.47;;;-1.41;100.00
55932;BME280;41837;55.700;37.984;2023-02-26T02:02:16;97669.31;;;-1.45;100.00
55932;BME280;41837;55.700;37.984;2023-02-26T02:04:43;97649.97;;;-1.56;100.00
55932;BME280;41837;55.700;37.984;2023-02-26T02:07:12;97665.81;;;-1.43;100.00
55932;BME280;41837;55.700;37.984;2023-02-26T02:09:38;97655.47;;;-1.40;100.00
55932;BME280;41837;55.700;37.984;2023-02-26T02:17:59;97646.03;;;-1.38;100.00
55932;BME280;41837;55.700;37.984;2023-02-26T02:20:56;97644.31;;;-1.37;100.00
55932;BME280;41837;55.700;37.984;2023-02-26T02:34:33;97641.72;;;-1.36;100.00
55932;BME280;41837;55.700;37.984;2023-02-26T02:39:39;97644.84;;;-1.56;100.00
55932;BME280;41837;55.700;37.984;2023-02-26T02:42:21;97632.63;;;-1.77;100.00
55932;BME280;41837;55.700;37.984;2023-02-26T02:44:57;97636.16;;;-1.52;100.00
55932;BME280;41837;55.700;37.984;2023-02-26T02:47:28;97629.72;;;-1.65;100.00
55932;BME280;41837;55.700;37.984;2023-02-26T02:50:07;97631.34;;;-1.33;100.00
55932;BME280;41837;55.700;37.984;2023-02-26T02:52:43;97619.63;;;-0.05;100.00
55932;BME280;41837;55.700;37.984;2023-02-26T02:55:17;97616.16;;;-1.10;100.00
55932;BME280;41837;55.700;37.984;2023-02-26T02:57:59;97613.41;;;-1.33;100.00
55932;BME280;41837;55.700;37.984;2023-02-26T03:00:30;97612.53;;;-1.32;100.00
55932;BME280;41837;55.700;37.984;2023-02-26T03:05:48;97602.44;;;-1.38;100.00
55932;BME280;41837;55.700;37.984;2023-02-26T03:08:18;97604.88;;;-1.33;100.00
55932;BME280;41837;55.700;37.984;2023-02-26T03:10:46;97595.91;;;-1.48;100.00
55932;BME280;41837;55.700;37.984;2023-02-26T03:13:18;97587.22;;;-1.42;100.00
55932;BME280;41837;55.700;37.984;2023-02-26T03:18:48;97593.19;;;-1.42;100.00
55932;BME280;41837;55.700;37.984;2023-02-26T03:24:47;97581.72;;;-1.30;100.00
55932;BME280;41837;55.700;37.984;2023-02-26T03:27:39;97585.91;;;-1.27;100.00
55932;BME280;41837;55.700;37.984;2023-02-26T03:30:37;97587.72;;;-1.31;100.00
55932;BME280;41837;55.700;37.984;2023-02-26T03:33:21;97593.28;;;-1.17;100.00
55932;BME280;41837;55.700;37.984;2023-02-26T03:38:36;97583.66;;;-1.08;100.00
55932;BME280;41837;55.700;37.984;2023-02-26T03:41:09;97587.03;;;-1.08;100.00
55932;BME280;41837;55.700;37.984;2023-02-26T03:43:47;97583.66;;;-1.08;100.00
55932;BME280;41837;55.700;37.984;2023-02-26T03:46:22;97578.81;;;-1.19;100.00
55932;BME280;41837;55.700;37.984;2023-02-26T03:48:51;97581.25;;;-1.15;100.00
55932;BME280;41837;55.700;37.984;2023-02-26T03:51:19;97586.25;;;-1.10;100.00
55932;BME280;41837;55.700;37.984;2023-02-26T03:54:29;97594.28;;;-1.22;100.00
55932;BME280;41837;55.700;37.984;2023-02-26T03:57:23;97593.22;;;-1.14;100.00
55932;BME280;41837;55.700;37.984;2023-02-26T04:00:14;97600.00;;;-1.13;100.00
55932;BME280;41837;55.700;37.984;2023-02-26T04:02:57;97596.13;;;-1.26;100.00
55932;BME280;41837;55.700;37.984;2023-02-26T04:05:27;97599.53;;;-1.25;100.00
55932;BME280;41837;55.700;37.984;2023-02-26T04:07:56;97603.97;;;-1.30;100.00
55932;BME280;41837;55.700;37.984;2023-02-26T04:10:38;97592.91;;;-1.33;100.00
55932;BME280;41837;55.700;37.984;2023-02-26T04:13:06;97602.06;;;-1.24;100.00
55932;BME280;41837;55.700;37.984;2023-02-26T04:15:32;97602.19;;;-1.28;100.00
55932;BME280;41837;55.700;37.984;2023-02-26T04:17:58;97609.06;;;-1.29;100.00
55932;BME280;41837;55.700;37.984;2023-02-26T04:20:25;97584.25;;;-1.58;100.00
55932;BME280;41837;55.700;37.984;2023-02-26T04:22:53;97614.22;;;-1.30;100.00
55932;BME280;41837;55.700;37.984;2023-02-26T04:25:22;97610.50;;;-1.20;100.00
55932;BME280;41837;55.700;37.984;2023-02-26T04:27:50;97620.88;;;-1.25;100.00
55932;BME280;41837;55.700;37.984;2023-02-26T04:30:16;97621.38;;;-1.12;100.00
55932;BME280;41837;55.700;37.984;2023-02-26T04:32:42;97637.84;;;-1.21;100.00
55932;BME280;41837;55.700;37.984;2023-02-26T04:35:10;97636.31;;;-1.26;100.00
55932;BME280;41837;55.700;37.984;2023-02-26T04:37:37;97645.56;;;-1.22;100.00
55932;BME280;41837;55.700;37.984;2023-02-26T04:40:03;97654.13;;;-1.22;100.00
55932;BME280;41837;55.700;37.984;2023-02-26T04:42:30;97665.22;;;-1.21;100.00
55932;BME280;41837;55.700;37.984;2023-02-26T04:44:56;97675.09;;;-1.09;100.00
55932;BME280;41837;55.700;37.984;2023-02-26T04:47:24;97653.09;;;-1.16;100.00
55932;BME280;41837;55.700;37.984;2023-02-26T04:49:50;97656.22;;;-1.06;100.00
55932;BME280;41837;55.700;37.984;2023-02-26T04:52:16;97677.50;;;-1.03;100.00
55932;BME280;41837;55.700;37.984;2023-02-26T04:54:43;97674.84;;;-1.00;100.00
55932;BME280;41837;55.700;37.984;2023-02-26T04:57:10;97679.09;;;-1.00;100.00
55932;BME280;41837;55.700;37.984;2023-02-26T04:59:36;97679.06;;;-0.99;100.00
55932;BME280;41837;55.700;37.984;2023-02-26T05:02:04;97688.13;;;-0.87;100.00
55932;BME280;41837;55.700;37.984;2023-02-26T05:04:31;97684.44;;;-0.78;100.00
55932;BME280;41837;55.700;37.984;2023-02-26T05:06:59;97695.47;;;-0.74;100.00
55932;BME280;41837;55.700;37.984;2023-02-26T05:09:26;97693.72;;;-0.74;100.00
55932;BME280;41837;55.700;37.984;2023-02-26T05:11:56;97694.47;;;-0.70;100.00
55932;BME280;41837;55.700;37.984;2023-02-26T05:14:21;97711.50;;;-0.68;100.00
55932;BME280;41837;55.700;37.984;2023-02-26T05:16:48;97720.78;;;-0.64;100.00
55932;BME280;41837;55.700;37.984;2023-02-26T05:19:16;97713.97;;;-0.65;100.00
55932;BME280;41837;55.700;37.984;2023-02-26T05:21:45;97720.56;;;-0.56;100.00
55932;BME280;41837;55.700;37.984;2023-02-26T05:24:13;97717.84;;;-0.51;100.00
55932;BME280;41837;55.700;37.984;2023-02-26T05:26:39;97718.69;;;-0.51;100.00
55932;BME280;41837;55.700;37.984;2023-02-26T05:29:06;97733.19;;;-0.50;100.00
55932;BME280;41837;55.700;37.984;2023-02-26T05:31:32;97728.66;;;-0.42;100.00
55932;BME280;41837;55.700;37.984;2023-02-26T05:33:59;97733.88;;;-0.45;100.00
55932;BME280;41837;55.700;37.984;2023-02-26T05:36:25;97729.50;;;-0.41;100.00
55932;BME280;41837;55.700;37.984;2023-02-26T05:38:52;97716.81;;;-0.46;100.00
55932;BME280;41837;55.700;37.984;2023-02-26T05:41:19;97739.41;;;-0.29;100.00
55932;BME280;41837;55.700;37.984;2023-02-26T05:43:44;97738.50;;;-0.28;100.00
55932;BME280;41837;55.700;37.984;2023-02-26T05:46:10;97737.81;;;-0.33;100.00
55932;BME280;41837;55.700;37.984;2023-02-26T05:48:36;97741.72;;;-0.21;100.00
55932;BME280;41837;55.700;37.984;2023-02-26T05:51:02;97739.66;;;-0.10;100.00
55932;BME280;41837;55.700;37.984;2023-02-26T05:53:28;97756.44;;;0.01;100.00
55932;BME280;41837;55.700;37.984;2023-02-26T05:55:54;97737.41;;;0.06;100.00
55932;BME280;41837;55.700;37.984;2023-02-26T05:58:21;97741.25;;;0.20;100.00
55932;BME280;41837;55.700;37.984;2023-02-26T06:00:47;97735.28;;;0.44;100.00
55932;BME280;41837;55.700;37.984;2023-02-26T06:03:14;97734.50;;;0.66;100.00
55932;BME280;41837;55.700;37.984;2023-02-26T06:05:40;97732.47;;;1.89;100.00
55932;BME280;41837;55.700;37.984;2023-02-26T06:08:06;97716.63;;;2.60;100.00
55932;BME280;41837;55.700;37.984;2023-02-26T06:10:32;97724.19;;;2.84;100.00
55932;BME280;41837;55.700;37.984;2023-02-26T06:12:59;97720.41;;;3.84;100.00
55932;BME280;41837;55.700;37.984;2023-02-26T06:15:26;97728.03;;;2.54;100.00
55932;BME280;41837;55.700;37.984;2023-02-26T06:17:52;97742.47;;;1.75;100.00
55932;BME280;41837;55.700;37.984;2023-02-26T06:20:18;97745.06;;;1.29;100.00
55932;BME280;41837;55.700;37.984;2023-02-26T06:22:45;97752.09;;;1.02;100.00
55932;BME280;41837;55.700;37.984;2023-02-26T06:25:11;97764.41;;;0.93;100.00
55932;BME280;41837;55.700;37.984;2023-02-26T06:27:37;97761.09;;;0.90;100.00
55932;BME280;41837;55.700;37.984;2023-02-26T06:30:04;97757.25;;;0.78;100.00
55932;BME280;41837;55.700;37.984;2023-02-26T06:32:30;97761.84;;;1.17;100.00
55932;BME280;41837;55.700;37.984;2023-02-26T06:34:56;97756.59;;;1.64;100.00
55932;BME280;41837;55.700;37.984;2023-02-26T06:37:23;97756.66;;;1.41;100.00
55932;BME280;41837;55.700;37.984;2023-02-26T06:39:49;97760.09;;;1.41;100.00
55932;BME280;41837;55.700;37.984;2023-02-26T06:42:15;97759.22;;;1.85;100.00
55932;BME280;41837;55.700;37.984;2023-02-26T06:44:41;97758.44;;;1.39;100.00
55932;BME280;41837;55.700;37.984;2023-02-26T06:47:08;97769.56;;;1.17;100.00
55932;BME280;41837;55.700;37.984;2023-02-26T06:49:34;97771.31;;;0.91;100.00
55932;BME280;41837;55.700;37.984;2023-02-26T06:52:00;97791.13;;;0.89;100.00
55932;BME280;41837;55.700;37.984;2023-02-26T06:54:27;97805.25;;;0.78;100.00
55932;BME280;41837;55.700;37.984;2023-02-26T06:56:53;97803.06;;;0.67;100.00
55932;BME280;41837;55.700;37.984;2023-02-26T06:59:23;97809.28;;;0.61;100.00
55932;BME280;41837;55.700;37.984;2023-02-26T07:01:49;97801.06;;;0.50;100.00
55932;BME280;41837;55.700;37.984;2023-02-26T07:04:16;97826.97;;;0.44;100.00
55932;BME280;41837;55.700;37.984;2023-02-26T07:06:42;97829.59;;;0.42;100.00
55932;BME280;41837;55.700;37.984;2023-02-26T07:09:07;97831.47;;;0.37;100.00
55932;BME280;41837;55.700;37.984;2023-02-26T07:11:34;97841.41;;;0.48;100.00
55932;BME280;41837;55.700;37.984;2023-02-26T07:14:00;97837.34;;;0.41;100.00
55932;BME280;41837;55.700;37.984;2023-02-26T07:16:26;97837.16;;;0.47;100.00
55932;BME280;41837;55.700;37.984;2023-02-26T07:18:53;97840.59;;;0.46;100.00
55932;BME280;41837;55.700;37.984;2023-02-26T07:21:19;97838.69;;;0.52;100.00
55932;BME280;41837;55.700;37.984;2023-02-26T07:23:45;97842.31;;;0.72;100.00
55932;BME280;41837;55.700;37.984;2023-02-26T07:26:14;97853.19;;;0.55;100.00
55932;BME280;41837;55.700;37.984;2023-02-26T07:28:42;97842.94;;;0.53;100.00
55932;BME280;41837;55.700;37.984;2023-02-26T07:31:08;97855.06;;;0.50;100.00
55932;BME280;41837;55.700;37.984;2023-02-26T07:33:35;97852.22;;;0.32;100.00
55932;BME280;41837;55.700;37.984;2023-02-26T07:36:03;97853.63;;;0.41;100.00
55932;BME280;41837;55.700;37.984;2023-02-26T07:38:30;97858.69;;;0.44;100.00
55932;BME280;41837;55.700;37.984;2023-02-26T07:40:56;97858.88;;;0.38;100.00
55932;BME280;41837;55.700;37.984;2023-02-26T07:43:23;97856.88;;;0.46;100.00
55932;BME280;41837;55.700;37.984;2023-02-26T07:45:50;97860.84;;;0.57;100.00
55932;BME280;41837;55.700;37.984;2023-02-26T07:48:17;97865.38;;;0.48;100.00
55932;BME280;41837;55.700;37.984;2023-02-26T07:50:43;97860.34;;;0.45;100.00
55932;BME280;41837;55.700;37.984;2023-02-26T07:53:10;97867.59;;;0.59;100.00
55932;BME280;41837;55.700;37.984;2023-02-26T07:55:36;97863.75;;;0.46;100.00
55932;BME280;41837;55.700;37.984;2023-02-26T07:58:02;97864.56;;;0.48;100.00
55932;BME280;41837;55.700;37.984;2023-02-26T08:00:28;97880.34;;;0.62;100.00
55932;BME280;41837;55.700;37.984;2023-02-26T08:02:54;97887.09;;;0.66;100.00
55932;BME280;41837;55.700;37.984;2023-02-26T08:05:21;97879.03;;;0.77;100.00
55932;BME280;41837;55.700;37.984;2023-02-26T08:07:47;97878.53;;;0.91;100.00
55932;BME280;41837;55.700;37.984;2023-02-26T08:10:13;97853.66;;;1.64;100.00
55932;BME280;41837;55.700;37.984;2023-02-26T08:12:40;97881.50;;;2.22;100.00
55932;BME280;41837;55.700;37.984;2023-02-26T08:15:06;97873.09;;;2.17;100.00
55932;BME280;41837;55.700;37.984;2023-02-26T08:17:33;97888.38;;;1.99;100.00
55932;BME280;41837;55.700;37.984;2023-02-26T08:19:59;97894.00;;;1.87;100.00
55932;BME280;41837;55.700;37.984;2023-02-26T08:22:25;97879.44;;;1.62;100.00
55932;BME280;41837;55.700;37.984;2023-02-26T08:24:52;97890.16;;;1.52;100.00
55932;BME280;41837;55.700;37.984;2023-02-26T08:27:18;97880.97;;;1.21;100.00
55932;BME280;41837;55.700;37.984;2023-02-26T08:29:44;97893.50;;;1.05;100.00
55932;BME280;41837;55.700;37.984;2023-02-26T08:32:12;97892.28;;;1.15;100.00
55932;BME280;41837;55.700;37.984;2023-02-26T08:34:40;97902.13;;;1.04;100.00
55932;BME280;41837;55.700;37.984;2023-02-26T08:37:06;97912.09;;;0.88;100.00
55932;BME280;41837;55.700;37.984;2023-02-26T08:39:34;97924.13;;;0.87;100.00
55932;BME280;41837;55.700;37.984;2023-02-26T08:42:04;97932.88;;;0.82;100.00
55932;BME280;41837;55.700;37.984;2023-02-26T08:44:31;97930.06;;;0.63;100.00
55932;BME280;41837;55.700;37.984;2023-02-26T08:46:57;97946.56;;;0.55;100.00
55932;BME280;41837;55.700;37.984;2023-02-26T08:49:23;97958.03;;;0.45;100.00
55932;BME280;41837;55.700;37.984;2023-02-26T08:51:49;97964.44;;;0.32;100.00
55932;BME280;41837;55.700;37.984;2023-02-26T08:54:16;97975.78;;;0.25;100.00
55932;BME280;41837;55.700;37.984;2023-02-26T08:56:42;97982.34;;;0.35;100.00
55932;BME280;41837;55.700;37.984;2023-02-26T08:59:09;97991.41;;;0.75;100.00
55932;BME280;41837;55.700;37.984;2023-02-26T09:01:36;97973.81;;;0.88;100.00
55932;BME280;41837;55.700;37.984;2023-02-26T09:04:03;97974.19;;;1.04;100.00
55932;BME280;41837;55.700;37.984;2023-02-26T09:06:30;97968.06;;;1.82;100.00
55932;BME280;41837;55.700;37.984;2023-02-26T09:08:56;97959.75;;;2.43;100.00
55932;BME280;41837;55.700;37.984;2023-02-26T09:11:22;97942.91;;;2.34;100.00
55932;BME280;41837;55.700;37.984;2023-02-26T09:13:49;97960.00;;;3.63;100.00
55932;BME280;41837;55.700;37.984;2023-02-26T09:16:15;97961.63;;;2.39;100.00
55932;BME280;41837;55.700;37.984;2023-02-26T09:18:41;97954.63;;;1.97;100.00
55932;BME280;41837;55.700;37.984;2023-02-26T09:21:07;97977.13;;;1.68;100.00
55932;BME280;41837;55.700;37.984;2023-02-26T09:23:34;97984.03;;;1.43;100.00
55932;BME280;41837;55.700;37.984;2023-02-26T09:26:00;97990.81;;;1.19;100.00
55932;BME280;41837;55.700;37.984;2023-02-26T09:28:27;97995.28;;;1.14;100.00
55932;BME280;41837;55.700;37.984;2023-02-26T09:30:54;97996.47;;;1.03;100.00
55932;BME280;41837;55.700;37.984;2023-02-26T09:33:20;97992.63;;;0.90;100.00
55932;BME280;41837;55.700;37.984;2023-02-26T09:35:51;97995.47;;;0.82;100.00
55932;BME280;41837;55.700;37.984;2023-02-26T09:38:18;98000.50;;;0.85;100.00
55932;BME280;41837;55.700;37.984;2023-02-26T09:40:57;97998.63;;;0.90;100.00
55932;BME280;41837;55.700;37.984;2023-02-26T09:45:50;98007.03;;;0.96;100.00
55932;BME280;41837;55.700;37.984;2023-02-26T09:48:19;98007.31;;;0.86;100.00
55932;BME280;41837;55.700;37.984;2023-02-26T09:50:52;98013.47;;;0.82;100.00
55932;BME280;41837;55.700;37.984;2023-02-26T09:53:26;98023.22;;;0.71;100.00
55932;BME280;41837;55.700;37.984;2023-02-26T09:55:54;98020.97;;;0.62;100.00
55932;BME280;41837;55.700;37.984;2023-02-26T10:03:23;98034.81;;;0.56;100.00
55932;BME280;41837;55.700;37.984;2023-02-26T10:09:07;98053.31;;;0.69;100.00
55932;BME280;41837;55.700;37.984;2023-02-26T10:14:27;98037.84;;;0.70;100.00
55932;BME280;41837;55.700;37.984;2023-02-26T10:17:00;98052.88;;;0.83;100.00
55932;BME280;41837;55.700;37.984;2023-02-26T10:19:35;98036.53;;;0.85;100.00
55932;BME280;41837;55.700;37.984;2023-02-26T10:22:28;98049.44;;;0.84;100.00
55932;BME280;41837;55.700;37.984;2023-02-26T10:25:08;98047.66;;;0.86;100.00
55932;BME280;41837;55.700;37.984;2023-02-26T10:33:40;98054.13;;;0.98;99.69
55932;BME280;41837;55.700;37.984;2023-02-26T10:36:39;98070.94;;;1.09;99.67
55932;BME280;41837;55.700;37.984;2023-02-26T10:41:45;98054.94;;;1.00;95.05
55932;BME280;41837;55.700;37.984;2023-02-26T10:44:26;98052.63;;;0.92;94.91
55932;BME280;41837;55.700;37.984;2023-02-26T10:49:42;98069.09;;;1.40;93.40
55932;BME280;41837;55.700;37.984;2023-02-26T10:52:18;98071.75;;;1.63;89.62
55932;BME280;41837;55.700;37.984;2023-02-26T10:54:56;98075.78;;;1.71;88.38
55932;BME280;41837;55.700;37.984;2023-02-26T10:57:30;98070.25;;;1.81;86.49
55932;BME280;41837;55.700;37.984;2023-02-26T11:00:01;98061.41;;;1.65;86.18
55932;BME280;41837;55.700;37.984;2023-02-26T11:02:42;98070.53;;;1.74;86.62
55932;BME280;41837;55.700;37.984;2023-02-26T11:05:22;98083.00;;;1.86;85.98
55932;BME280;41837;55.700;37.984;2023-02-26T11:07:59;98079.38;;;1.66;86.37
55932;BME280;41837;55.700;37.984;2023-02-26T11:11:01;98071.06;;;1.58;85.22
55932;BME280;41837;55.700;37.984;2023-02-26T11:13:31;98058.47;;;1.49;85.98
55932;BME280;41837;55.700;37.984;2023-02-26T11:16:02;98078.88;;;1.55;86.37
55932;BME280;41837;55.700;37.984;2023-02-26T11:18:34;98084.69;;;1.35;88.44
55932;BME280;41837;55.700;37.984;2023-02-26T11:21:03;98085.94;;;1.50;89.98
55932;BME280;41837;55.700;37.984;2023-02-26T11:23:30;98081.97;;;1.40;89.00
55932;BME280;41837;55.700;37.984;2023-02-26T11:26:03;98081.66;;;1.49;88.96
55932;BME280;41837;55.700;37.984;2023-02-26T11:28:37;98087.81;;;1.45;90.76
55932;BME280;41837;55.700;37.984;2023-02-26T11:31:09;98095.06;;;1.59;91.66
55932;BME280;41837;55.700;37.984;2023-02-26T11:33:38;98088.56;;;1.48;91.93
55932;BME280;41837;55.700;37.984;2023-02-26T11:36:13;98078.25;;;1.22;93.69
55932;BME280;41837;55.700;37.984;2023-02-26T11:38:41;98095.78;;;1.10;96.16
55932;BME280;41837;55.700;37.984;2023-02-26T11:41:12;98098.97;;;0.90;99.43
55932;BME280;41837;55.700;37.984;2023-02-26T11:43:41;98105.72;;;0.93;100.00
55932;BME280;41837;55.700;37.984;2023-02-26T11:46:09;98104.91;;;0.92;100.00
55932;BME280;41837;55.700;37.984;2023-02-26T11:48:46;98104.72;;;0.99;100.00
55932;BME280;41837;55.700;37.984;2023-02-26T11:51:18;98078.28;;;0.93;100.00
55932;BME280;41837;55.700;37.984;2023-02-26T11:53:53;98089.69;;;1.13;100.00
55932;BME280;41837;55.700;37.984;2023-02-26T11:56:40;98110.19;;;1.43;99.33
55932;BME280;41837;55.700;37.984;2023-02-26T11:59:17;98105.31;;;1.60;100.00
55932;BME280;41837;55.700;37.984;2023-02-26T12:01:43;98113.59;;;1.70;98.90
55932;BME280;41837;55.700;37.984;2023-02-26T12:04:12;98123.00;;;1.71;97.68
55932;BME280;41837;55.700;37.984;2023-02-26T12:06:39;98117.97;;;1.41;99.33
55932;BME280;41837;55.700;37.984;2023-02-26T12:09:13;98109.75;;;1.30;100.00
55932;BME280;41837;55.700;37.984;2023-02-26T12:27:45;98129.06;;;1.15;100.00
55932;BME280;41837;55.700;37.984;2023-02-26T12:35:54;98122.25;;;1.14;100.00
55932;BME280;41837;55.700;37.984;2023-02-26T12:38:48;98093.25;;;1.09;100.00
55932;BME280;41837;55.700;37.984;2023-02-26T12:53:16;98127.72;;;0.75;100.00
55932;BME280;41837;55.700;37.984;2023-02-26T12:56:14;98115.03;;;0.69;100.00
55932;BME280;41837;55.700;37.984;2023-02-26T12:59:02;98128.97;;;0.62;100.00
55932;BME280;41837;55.700;37.984;2023-02-26T13:01:57;98164.97;;;0.62;100.00
55932;BME280;41837;55.700;37.984;2023-02-26T13:07:09;98207.50;;;-0.25;100.00
55932;BME280;41837;55.700;37.984;2023-02-26T13:10:42;98227.53;;;-0.79;100.00
55932;BME280;41837;55.700;37.984;2023-02-26T13:16:45;98252.78;;;-1.01;100.00
55932;BME280;41837;55.700;37.984;2023-02-26T13:21:58;98257.06;;;-1.00;100.00
55932;BME280;41837;55.700;37.984;2023-02-26T13:24:40;98262.25;;;-1.04;100.00
55932;BME280;41837;55.700;37.984;2023-02-26T13:27:11;98260.41;;;-0.98;100.00
55932;BME280;41837;55.700;37.984;2023-02-26T13:29:47;98250.94;;;-0.94;100.00
55932;BME280;41837;55.700;37.984;2023-02-26T13:32:20;98260.19;;;-0.87;100.00
55932;BME280;41837;55.700;37.984;2023-02-26T13:35:03;98261.84;;;-0.83;100.00
55932;BME280;41837;55.700;37.984;2023-02-26T13:37:33;98253.94;;;-0.75;100.00
55932;BME280;41837;55.700;37.984;2023-02-26T13:42:55;98243.91;;;-0.84;100.00
55932;BME280;41837;55.700;37.984;2023-02-26T13:45:49;98262.50;;;-0.73;100.00
55932;BME280;41837;55.700;37.984;2023-02-26T13:48:44;98268.50;;;-0.76;100.00
55932;BME280;41837;55.700;37.984;2023-02-26T13:54:02;98273.84;;;-0.85;100.00
55932;BME280;41837;55.700;37.984;2023-02-26T14:04:27;98295.28;;;-0.89;100.00
55932;BME280;41837;55.700;37.984;2023-02-26T14:12:01;98304.69;;;-0.88;100.00
55932;BME280;41837;55.700;37.984;2023-02-26T14:14:32;98319.50;;;-1.02;100.00
55932;BME280;41837;55.700;37.984;2023-02-26T14:22:18;98340.78;;;-1.44;100.00
55932;BME280;41837;55.700;37.984;2023-02-26T14:24:45;98344.25;;;-1.48;100.00
55932;BME280;41837;55.700;37.984;2023-02-26T14:30:03;98342.41;;;-1.40;100.00
55932;BME280;41837;55.700;37.984;2023-02-26T14:33:05;98339.13;;;-1.48;100.00
55932;BME280;41837;55.700;37.984;2023-02-26T14:38:14;98342.72;;;-1.58;100.00
55932;BME280;41837;55.700;37.984;2023-02-26T14:40:47;98382.78;;;-1.53;100.00
55932;BME280;41837;55.700;37.984;2023-02-26T14:43:42;98343.25;;;-1.92;100.00
55932;BME280;41837;55.700;37.984;2023-02-26T14:46:10;98371.94;;;-1.70;100.00
55932;BME280;41837;55.700;37.984;2023-02-26T14:48:37;98372.97;;;-1.80;100.00
55932;BME280;41837;55.700;37.984;2023-02-26T14:51:20;98361.91;;;-1.82;100.00
55932;BME280;41837;55.700;37.984;2023-02-26T14:57:06;98350.81;;;-1.83;100.00
55932;BME280;41837;55.700;37.984;2023-02-26T14:59:46;98370.41;;;-1.82;100.00
55932;BME280;41837;55.700;37.984;2023-02-26T15:02:32;98363.72;;;-1.89;100.00
55932;BME280;41837;55.700;37.984;2023-02-26T15:10:23;98382.41;;;-1.84;100.00
55932;BME280;41837;55.700;37.984;2023-02-26T15:22:00;98404.69;;;-1.89;100.00
55932;BME280;41837;55.700;37.984;2023-02-26T15:24:29;98408.22;;;-1.96;100.00
55932;BME280;41837;55.700;37.984;2023-02-26T15:27:03;98427.09;;;-2.03;100.00
55932;BME280;41837;55.700;37.984;2023-02-26T15:29:36;98421.13;;;-2.06;100.00
55932;BME280;41837;55.700;37.984;2023-02-26T15:32:14;98405.00;;;-2.12;100.00
55932;BME280;41837;55.700;37.984;2023-02-26T15:34:47;98440.16;;;-2.23;100.00
55932;BME280;41837;55.700;37.984;2023-02-26T15:37:20;98454.78;;;-2.33;100.00
55932;BME280;41837;55.700;37.984;2023-02-26T15:39:50;98446.31;;;-2.40;100.00
55932;BME280;41837;55.700;37.984;2023-02-26T15:42:18;98451.34;;;-2.31;100.00
55932;BME280;41837;55.700;37.984;2023-02-26T15:44:45;98452.34;;;-2.42;100.00
55932;BME280;41837;55.700;37.984;2023-02-26T15:47:14;98453.16;;;-2.40;100.00
55932;BME280;41837;55.700;37.984;2023-02-26T15:49:44;98467.56;;;-2.32;100.00
55932;BME280;41837;55.700;37.984;2023-02-26T15:52:15;98473.50;;;-2.31;100.00
55932;BME280;41837;55.700;37.984;2023-02-26T15:54:46;98447.31;;;-2.53;100.00
55932;BME280;41837;55.700;37.984;2023-02-26T15:57:14;98465.94;;;-2.40;100.00
55932;BME280;41837;55.700;37.984;2023-02-26T15:59:53;98485.53;;;-2.39;100.00